Time;durP1;ratioP1;P1;durP2;ratioP2;P2;SDS_P1;SDS_P2;PMS_P1;PMS_P2;Temp;Humidity;BMP_temperature;BMP_pressure;BME280_temperature;BME280_humidity;BME280_pressure;Samples;Min_cycle;Max_cycle;Signal;HPM_P1;HPM_P2
2020/12/16 00:01:06;;;;;;;49.05;24.15;;;;;;;1.69;86.60;100643.44;1714653;83;25832;-49
2020/12/16 00:03:34;;;;;;;51.10;24.67;;;;;;;1.67;86.58;100638.34;1714201;83;25715;-52
2020/12/16 00:06:02;;;;;;;50.78;24.90;;;;;;;1.67;86.59;100637.00;1714447;83;25803;-52
2020/12/16 00:08:29;;;;;;;49.48;25.25;;;;;;;1.66;86.62;100643.38;1714551;83;26020;-53
2020/12/16 00:10:56;;;;;;;53.65;26.52;;;;;;;1.67;86.57;100644.20;1714225;83;26267;-56
2020/12/16 00:13:23;;;;;;;49.45;24.90;;;;;;;1.66;86.60;100644.70;1714557;83;25329;-52
2020/12/16 00:15:50;;;;;;;47.48;24.63;;;;;;;1.66;86.66;100641.24;1714514;83;25775;-52
2020/12/16 00:18:20;;;;;;;54.13;26.40;;;;;;;1.65;86.61;100645.78;1714274;83;26354;-57
2020/12/16 00:20:47;;;;;;;46.88;25.15;;;;;;;1.64;86.57;100645.48;1714631;83;25692;-55
2020/12/16 00:23:13;;;;;;;52.53;24.75;;;;;;;1.66;86.60;100651.91;1714462;83;25735;-52
2020/12/16 00:25:40;;;;;;;48.08;24.12;;;;;;;1.65;86.58;100647.11;1714509;83;25675;-57
2020/12/16 00:28:07;;;;;;;56.25;25.90;;;;;;;1.65;86.62;100646.28;1714485;83;26236;-55
2020/12/16 00:30:34;;;;;;;50.48;25.00;;;;;;;1.64;86.60;100645.48;1714431;83;25739;-56
2020/12/16 00:33:00;;;;;;;53.33;26.30;;;;;;;1.63;86.58;100641.19;1714281;83;25704;-59
2020/12/16 00:35:30;;;;;;;48.90;26.02;;;;;;;1.63;86.60;100629.72;1714303;83;25637;-55
2020/12/16 00:37:57;;;;;;;52.48;26.68;;;;;;;1.63;86.66;100631.05;1712868;83;26517;-57
2020/12/16 00:40:25;;;;;;;50.85;25.90;;;;;;;1.63;86.71;100634.52;1694680;84;25916;-58
2020/12/16 00:42:53;;;;;;;55.33;25.90;;;;;;;1.61;86.69;100625.95;1727347;82;25945;-58
2020/12/16 00:45:20;;;;;;;52.75;24.57;;;;;;;1.62;86.70;100635.58;1706922;83;25876;-58
2020/12/16 00:47:49;;;;;;;59.55;27.10;;;;;;;1.62;86.89;100648.92;1709666;83;25989;-58
2020/12/16 00:50:16;;;;;;;55.43;27.02;;;;;;;1.62;86.86;100658.25;1709505;83;25648;-58
2020/12/16 00:52:43;;;;;;;56.48;25.90;;;;;;;1.61;86.78;100637.95;1709792;83;26686;-48
2020/12/16 00:55:10;;;;;;;49.67;24.10;;;;;;;1.62;86.78;100641.45;1709883;83;25720;-51
2020/12/16 00:57:36;;;;;;;56.13;26.33;;;;;;;1.61;86.85;100637.16;1710043;83;25689;-56
2020/12/16 01:00:09;;;;;;;47.73;23.40;;;;;;;1.62;86.80;100644.12;1709898;83;25736;-51
2020/12/16 01:02:48;;;;;;;53.68;25.12;;;;;;;1.62;86.87;100634.78;1710185;83;25644;-50
2020/12/16 01:05:20;;;;;;;58.50;25.80;;;;;;;1.62;86.79;100634.78;1709971;83;25725;-58
2020/12/16 01:07:48;;;;;;;49.80;24.45;;;;;;;1.62;86.76;100636.13;1710156;83;25675;-58
2020/12/16 01:10:17;;;;;;;57.00;26.93;;;;;;;1.61;86.75;100641.95;1710148;83;25597;-58
2020/12/16 01:12:47;;;;;;;50.70;25.65;;;;;;;1.60;86.76;100636.86;1710148;83;25592;-54
2020/12/16 01:15:17;;;;;;;48.68;24.70;;;;;;;1.60;86.74;100642.19;1710227;83;25631;-57
2020/12/16 01:17:46;;;;;;;51.40;25.55;;;;;;;1.59;86.73;100641.39;1710175;83;27749;-53
2020/12/16 01:20:14;;;;;;;47.23;24.92;;;;;;;1.60;86.78;100655.02;1710197;83;26205;-54
2020/12/16 01:22:44;;;;;;;51.63;24.63;;;;;;;1.60;86.72;100639.53;1710112;83;25679;-53
2020/12/16 01:25:12;;;;;;;51.58;24.05;;;;;;;1.60;86.70;100641.69;1710233;83;25609;-51
2020/12/16 01:27:39;;;;;;;51.80;26.42;;;;;;;1.61;86.74;100639.82;1710225;83;25580;-57
2020/12/16 01:30:08;;;;;;;53.02;26.12;;;;;;;1.60;86.70;100638.19;1710220;83;26366;-58
2020/12/16 01:32:37;;;;;;;60.73;25.92;;;;;;;1.59;86.68;100645.39;1710139;83;25716;-56
2020/12/16 01:35:07;;;;;;;52.48;26.95;;;;;;;1.60;86.67;100644.86;1710022;83;25779;-50
2020/12/16 01:37:36;;;;;;;53.70;25.32;;;;;;;1.59;86.66;100645.39;1709212;83;25747;-55
2020/12/16 01:40:08;;;;;;;48.00;25.12;;;;;;;1.59;86.68;100650.73;1710260;83;25644;-57
2020/12/16 01:42:38;;;;;;;51.53;26.60;;;;;;;1.60;86.67;100655.52;1715925;83;25711;-57
2020/12/16 01:45:06;;;;;;;;;;;;;;;1.58;86.64;100662.42;1718606;83;25715;-56
2020/12/16 01:47:33;;;;;;;46.25;23.18;;;;;;;1.58;86.70;100662.96;1716022;83;25609;-56
2020/12/16 01:49:59;;;;;;;51.00;26.80;;;;;;;1.56;86.66;100663.20;1715979;83;25641;-57
2020/12/16 01:52:28;;;;;;;56.35;26.68;;;;;;;1.57;86.68;100655.50;1715972;83;25757;-56
2020/12/16 01:54:57;;;;;;;50.48;24.90;;;;;;;1.57;86.70;100648.83;1715953;83;25718;-57
2020/12/16 01:57:25;;;;;;;56.55;27.00;;;;;;;1.58;86.69;100654.42;1716033;83;25724;-54
2020/12/16 01:59:52;;;;;;;53.45;25.72;;;;;;;1.58;86.72;100654.42;1715958;83;25806;-59
2020/12/16 02:02:20;;;;;;;49.83;25.60;;;;;;;1.58;86.67;100659.77;1715904;83;25817;-57
2020/12/16 02:04:50;;;;;;;57.65;26.45;;;;;;;1.60;86.65;100662.19;1715842;83;25788;-57
2020/12/16 02:07:17;;;;;;;50.12;24.30;;;;;;;1.58;86.66;100669.62;1715981;83;25931;-59
2020/12/16 02:09:46;;;;;;;55.08;26.35;;;;;;;1.58;86.64;100657.63;1715776;83;25775;-50
2020/12/16 02:12:23;;;;;;;55.43;26.90;;;;;;;1.57;86.62;100660.03;1716098;83;26074;-57
2020/12/16 02:14:50;;;;;;;50.80;25.43;;;;;;;1.56;86.65;100660.53;1693356;83;25885;-59
2020/12/16 02:17:17;;;;;;;52.08;25.20;;;;;;;1.55;86.68;100656.77;1715948;83;25667;-59
2020/12/16 02:19:54;;;;;;;47.10;25.05;;;;;;;1.54;86.66;100666.64;1715914;83;26362;-50
2020/12/16 02:22:22;;;;;;;55.45;26.62;;;;;;;1.54;86.65;100657.84;1715889;83;25742;-57
2020/12/16 02:25:07;;;;;;;49.23;25.62;;;;;;;1.53;86.60;100649.55;1715898;83;25632;-57
2020/12/16 02:27:35;;;;;;;54.25;25.65;;;;;;;1.52;86.61;100655.94;1716003;83;25636;-56
2020/12/16 02:30:05;;;;;;;51.10;25.35;;;;;;;1.53;86.61;100653.54;1715972;83;25719;-59
2020/12/16 02:32:32;;;;;;;54.98;26.20;;;;;;;1.50;86.70;100648.18;1716049;83;26286;-54
2020/12/16 02:34:59;;;;;;;48.40;24.32;;;;;;;1.48;86.73;100652.41;1715894;83;25700;-60
2020/12/16 02:37:25;;;;;;;52.70;25.75;;;;;;;1.46;86.64;100651.85;1715911;83;25733;-46
2020/12/16 02:39:53;;;;;;;47.50;23.92;;;;;;;1.43;86.65;100645.66;1717979;83;25593;-51
2020/12/16 02:42:28;;;;;;;51.90;25.27;;;;;;;1.43;86.63;100648.33;1719360;83;25740;-59
2020/12/16 02:44:57;;;;;;;48.20;24.43;;;;;;;1.41;86.67;100641.06;1701681;84;26247;-53
2020/12/16 02:47:24;;;;;;;59.30;26.87;;;;;;;1.40;86.63;100637.33;1715937;83;25629;-58
2020/12/16 02:49:51;;;;;;;57.05;26.23;;;;;;;1.39;86.62;100637.03;1715639;83;25726;-57
2020/12/16 02:52:18;;;;;;;51.58;25.77;;;;;;;1.38;86.62;100639.41;1715556;83;26224;-55
2020/12/16 02:54:45;;;;;;;49.75;23.87;;;;;;;1.36;86.58;100628.98;1715731;83;25737;-57
2020/12/16 02:57:11;;;;;;;51.70;24.45;;;;;;;1.34;86.57;100622.28;1715675;83;25993;-58
2020/12/16 02:59:38;;;;;;;53.98;24.60;;;;;;;1.33;86.58;100612.16;1715572;83;25699;-57
2020/12/16 03:02:05;;;;;;;53.70;23.90;;;;;;;1.31;86.57;100622.22;1715702;83;25621;-57
2020/12/16 03:04:32;;;;;;;56.90;25.17;;;;;;;1.30;86.61;100631.28;1715629;83;25642;-53
2020/12/16 03:06:58;;;;;;;52.08;24.45;;;;;;;1.28;86.67;100628.06;1715647;83;25663;-46
2020/12/16 03:09:27;;;;;;;50.95;25.23;;;;;;;1.27;86.63;100624.56;1715590;83;26177;-54
2020/12/16 03:11:56;;;;;;;49.65;25.00;;;;;;;1.26;86.67;100623.47;1715649;83;26310;-57
2020/12/16 03:14:23;;;;;;;48.40;25.43;;;;;;;1.24;86.72;100630.39;1715705;83;25733;-51
2020/12/16 03:16:53;;;;;;;46.80;24.47;;;;;;;1.22;86.72;100633.80;1715609;83;25619;-57
2020/12/16 03:19:20;;;;;;;50.73;25.50;;;;;;;1.22;86.74;100630.33;1715674;83;25768;-51
2020/12/16 03:21:46;;;;;;;50.15;23.38;;;;;;;1.21;86.75;100622.04;1715601;83;26359;-48
2020/12/16 03:24:13;;;;;;;51.98;25.75;;;;;;;1.20;86.80;100623.10;1715571;83;26061;-56
2020/12/16 03:26:41;;;;;;;48.20;24.27;;;;;;;1.18;86.82;100625.20;1715665;83;25771;-55
2020/12/16 03:29:07;;;;;;;56.18;25.25;;;;;;;1.17;86.84;100629.70;1715532;83;25668;-59
2020/12/16 03:31:34;;;;;;;48.15;23.80;;;;;;;1.17;86.85;100639.56;1715609;83;26325;-58
2020/12/16 03:34:01;;;;;;;45.83;24.43;;;;;;;1.15;86.91;100649.12;1715594;83;27163;-57
2020/12/16 03:36:28;;;;;;;48.75;24.35;;;;;;;1.14;86.86;100646.16;1715439;83;26059;-57
2020/12/16 03:38:54;;;;;;;48.83;23.38;;;;;;;1.14;86.91;100646.69;1715530;83;25674;-58
2020/12/16 03:41:21;;;;;;;52.98;25.90;;;;;;;1.11;86.90;100653.32;1715636;83;25694;-58
2020/12/16 03:43:50;;;;;;;46.65;24.35;;;;;;;1.11;86.86;100650.66;1715589;83;25640;-58
2020/12/16 03:46:17;;;;;;;46.92;24.12;;;;;;;1.08;86.90;100655.92;1715903;83;25995;-48
2020/12/16 03:48:45;;;;;;;51.45;25.55;;;;;;;1.05;86.91;100657.72;1715527;83;25733;-48
2020/12/16 03:51:14;;;;;;;51.65;23.80;;;;;;;1.04;86.95;100674.77;1715631;83;25858;-55
2020/12/16 03:53:42;;;;;;;51.58;24.25;;;;;;;1.03;87.05;100681.13;1715729;83;25682;-59
2020/12/16 03:56:16;;;;;;;45.33;23.62;;;;;;;1.03;86.98;100672.34;1715604;83;25779;-56
2020/12/16 03:58:45;;;;;;;50.35;24.52;;;;;;;1.01;87.11;100677.09;1715682;83;25908;-51
2020/12/16 04:01:15;;;;;;;53.85;24.95;;;;;;;1.00;87.11;100675.47;1715779;83;26363;-58
2020/12/16 04:03:42;;;;;;;52.90;24.90;;;;;;;0.97;87.12;100678.59;1715689;83;25708;-59
2020/12/16 04:06:10;;;;;;;52.20;24.63;;;;;;;0.96;87.11;100679.66;1715630;83;25674;-53
2020/12/16 04:08:39;;;;;;;46.25;25.08;;;;;;;0.96;87.10;100683.66;1715682;83;25698;-55
2020/12/16 04:11:15;;;;;;;37.10;17.67;;;;;;;0.94;87.11;100685.22;1715696;83;25779;-53
2020/12/16 04:13:42;;;;;;;53.20;24.52;;;;;;;0.97;87.09;100689.25;1715465;83;25770;-57
2020/12/16 04:16:14;;;;;;;49.58;24.72;;;;;;;0.95;87.15;100683.36;1715638;83;25623;-50
2020/12/16 04:18:41;;;;;;;51.92;24.35;;;;;;;0.94;87.09;100691.88;1715574;83;25710;-50
2020/12/16 04:21:09;;;;;;;50.48;24.80;;;;;;;0.92;87.08;100684.13;1715579;83;25759;-58
2020/12/16 04:23:37;;;;;;;48.50;24.77;;;;;;;0.91;87.17;100689.67;1715608;83;25717;-58
2020/12/16 04:26:05;;;;;;;51.37;25.15;;;;;;;0.89;87.31;100690.44;1715472;83;25596;-53
2020/12/16 04:28:33;;;;;;;52.27;25.55;;;;;;;0.87;87.19;100686.67;1715593;83;25706;-53
2020/12/16 04:31:02;;;;;;;56.45;26.60;;;;;;;0.86;87.18;100685.05;1715530;83;25713;-57
2020/12/16 04:33:28;;;;;;;51.73;24.82;;;;;;;0.86;87.21;100686.91;1715447;83;25623;-56
2020/12/16 04:35:55;;;;;;;55.78;26.17;;;;;;;0.86;87.20;100688.23;1715547;83;25938;-55
2020/12/16 04:38:22;;;;;;;56.45;25.85;;;;;;;0.86;87.24;100685.58;1715528;83;25693;-57
2020/12/16 04:40:48;;;;;;;53.17;25.88;;;;;;;0.86;87.23;100686.91;1711350;83;25675;-57
2020/12/16 04:43:23;;;;;;;53.50;25.50;;;;;;;0.85;87.22;100689.27;1695971;84;25673;-56
2020/12/16 04:45:52;;;;;;;50.35;25.25;;;;;;;0.86;87.20;100685.58;1728516;82;25703;-57
2020/12/16 04:48:19;;;;;;;51.50;26.60;;;;;;;0.85;87.22;100685.28;1709908;83;28045;-56
2020/12/16 04:50:46;;;;;;;51.05;24.75;;;;;;;0.86;87.27;100690.38;1709865;83;25783;-55
2020/12/16 04:53:18;;;;;;;55.43;27.13;;;;;;;0.86;87.26;100681.05;1709859;83;25657;-56
2020/12/16 04:55:46;;;;;;;52.03;25.00;;;;;;;0.87;87.24;100688.01;1709965;83;26361;-51
2020/12/16 04:58:13;;;;;;;54.35;27.30;;;;;;;0.86;87.21;100685.05;1710016;83;25752;-59
2020/12/16 05:00:40;;;;;;;58.00;26.62;;;;;;;0.87;87.22;100685.84;1709951;83;26186;-53
2020/12/16 05:03:09;;;;;;;59.18;26.68;;;;;;;0.87;87.21;100689.34;1709921;83;25648;-57
2020/12/16 05:05:37;;;;;;;55.17;25.15;;;;;;;0.88;87.23;100689.61;1710211;83;25679;-57
2020/12/16 05:08:15;;;;;;;52.65;27.22;;;;;;;0.88;87.15;100689.61;1709859;83;25667;-55
2020/12/16 05:10:46;;;;;;;55.38;26.12;;;;;;;0.88;87.16;100690.94;1709607;83;25644;-57
2020/12/16 05:13:16;;;;;;;56.95;26.23;;;;;;;0.90;87.17;100682.72;1687579;83;27300;-58
2020/12/16 05:15:45;;;;;;;61.85;27.50;;;;;;;0.91;87.16;100683.02;1709768;83;25617;-54
2020/12/16 05:18:18;;;;;;;60.95;27.77;;;;;;;0.90;87.12;100680.05;1710027;83;26284;-58
2020/12/16 05:20:51;;;;;;;60.58;27.25;;;;;;;0.83;87.10;100662.07;1709943;83;25815;-56
2020/12/16 05:23:21;;;;;;;49.03;26.23;;;;;;;0.91;87.13;100671.03;1709952;83;25679;-57
2020/12/16 05:26:11;;;;;;;57.23;26.07;;;;;;;0.92;87.12;100665.47;1709842;83;26027;-57
2020/12/16 05:28:42;;;;;;;52.17;25.00;;;;;;;0.92;87.07;100667.34;1709974;83;34818;-53
2020/12/16 05:31:11;;;;;;;53.48;25.57;;;;;;;0.93;87.08;100675.06;1709578;83;26288;-57
2020/12/16 05:33:50;;;;;;;50.60;25.52;;;;;;;0.93;87.03;100679.59;1709958;83;25811;-53
2020/12/16 05:36:31;;;;;;;53.20;26.37;;;;;;;0.93;87.07;100678.26;1710211;83;25777;-50
2020/12/16 05:39:00;;;;;;;56.37;27.65;;;;;;;0.94;87.07;100663.91;1709933;83;25723;-55
2020/12/16 05:41:30;;;;;;;54.27;25.68;;;;;;;0.94;87.05;100671.90;1709799;83;25684;-51
2020/12/16 05:44:18;;;;;;;55.50;27.27;;;;;;;0.93;87.01;100671.60;1709927;83;25989;-58
2020/12/16 05:46:50;;;;;;;57.90;27.27;;;;;;;0.93;87.01;100674.27;1709948;83;25632;-50
2020/12/16 05:49:30;;;;;;;55.50;26.90;;;;;;;0.92;87.02;100684.13;1709994;83;25759;-49
2020/12/16 05:52:00;;;;;;;59.40;26.35;;;;;;;0.91;86.99;100691.81;1709905;83;26412;-58
2020/12/16 05:54:27;;;;;;;60.33;27.32;;;;;;;0.91;87.03;100701.66;1709998;83;25712;-45
2020/12/16 05:57:19;;;;;;;56.48;26.85;;;;;;;0.90;87.07;100696.87;1710004;83;25678;-53
2020/12/16 06:00:14;;;;;;;57.43;27.52;;;;;;;0.91;87.08;100698.47;1710056;83;25675;-53
2020/12/16 06:02:44;;;;;;;54.93;26.90;;;;;;;0.92;87.09;100700.63;1710214;83;25752;-47
2020/12/16 06:05:16;;;;;;;55.78;26.62;;;;;;;0.92;87.04;100697.44;1710111;83;25834;-56
2020/12/16 06:07:46;;;;;;;56.90;26.80;;;;;;;0.92;87.06;100704.63;1710123;83;25729;-49
2020/12/16 06:10:15;;;;;;;58.83;27.13;;;;;;;0.91;87.05;100699.80;1710111;83;25739;-54
2020/12/16 06:12:44;;;;;;;52.20;26.87;;;;;;;0.92;87.08;100701.97;1710013;83;25631;-48
2020/12/16 06:15:14;;;;;;;57.03;27.22;;;;;;;0.93;87.08;100702.23;1710275;83;25737;-57
2020/12/16 06:17:47;;;;;;;56.37;26.35;;;;;;;0.93;87.03;100699.57;1710129;83;27122;-56
2020/12/16 06:20:17;;;;;;;53.63;27.58;;;;;;;0.94;87.05;100703.86;1709950;83;26361;-51
2020/12/16 06:22:46;;;;;;;51.68;25.75;;;;;;;0.94;87.06;100701.20;1710004;83;25649;-46
2020/12/16 06:25:16;;;;;;;58.28;26.45;;;;;;;0.95;87.03;100701.47;1710181;83;25910;-57
2020/12/16 06:27:50;;;;;;;58.68;26.60;;;;;;;0.96;87.03;100706.30;1710059;83;25664;-47
2020/12/16 06:30:27;;;;;;;55.28;27.15;;;;;;;0.97;87.02;100701.23;1710020;83;25728;-56
2020/12/16 06:33:33;;;;;;;58.60;27.58;;;;;;;0.97;86.95;100702.06;1709894;83;25663;-53
2020/12/16 06:36:04;;;;;;;53.08;27.50;;;;;;;0.97;86.94;100695.41;1709823;83;25723;-53
2020/12/16 06:38:47;;;;;;;55.40;26.17;;;;;;;0.98;86.95;100695.68;1710052;83;25763;-57
2020/12/16 06:41:26;;;;;;;54.15;26.02;;;;;;;0.98;86.88;100688.22;1713496;83;25610;-55
2020/12/16 06:44:10;;;;;;;58.28;27.00;;;;;;;0.99;86.89;100686.66;1715638;83;27267;-50
2020/12/16 06:46:43;;;;;;;53.17;26.97;;;;;;;0.99;86.90;100698.64;1716920;82;25610;-57
2020/12/16 06:52:13;;;;;;;62.60;29.45;;;;;;;1.07;86.86;100703.61;1827531;77;33140;-57
2020/12/16 06:54:53;;;;;;;59.30;26.20;;;;;;;1.01;86.87;100697.08;1794727;78;25688;-55
2020/12/16 06:57:29;;;;;;;57.63;28.00;;;;;;;1.02;86.87;100708.00;1799295;78;25679;-59
2020/12/16 07:00:00;;;;;;;60.60;29.32;;;;;;;1.04;86.84;100713.91;1802012;78;25629;-57
2020/12/16 07:02:34;;;;;;;55.48;27.20;;;;;;;1.02;86.87;100704.01;1833361;78;26226;-58
2020/12/16 07:05:05;;;;;;;60.45;27.80;;;;;;;1.03;86.92;100714.43;1833276;78;25715;-59
2020/12/16 07:07:56;;;;;;;52.95;26.12;;;;;;;1.04;86.90;100710.73;1833423;78;25596;-58
2020/12/16 07:10:41;;;;;;;57.03;26.65;;;;;;;1.06;86.85;100710.50;1833333;78;26738;-57
2020/12/16 07:13:32;;;;;;;61.75;29.27;;;;;;;1.07;86.93;100722.26;1833182;78;25784;-58
2020/12/16 07:16:07;;;;;;;61.98;28.10;;;;;;;1.09;86.84;100720.16;1833399;78;25694;-51
2020/12/16 07:18:44;;;;;;;57.55;27.82;;;;;;;1.11;86.83;100714.60;1832446;78;25687;-57
2020/12/16 07:21:23;;;;;;;56.18;27.45;;;;;;;1.14;86.79;100725.30;1833175;78;25740;-60
2020/12/16 07:24:06;;;;;;;60.15;29.63;;;;;;;1.15;86.76;100725.06;1833231;78;26672;-59
2020/12/16 07:26:42;;;;;;;57.85;27.98;;;;;;;1.17;86.73;100733.62;1833261;78;26354;-58
2020/12/16 07:29:37;;;;;;;62.03;29.70;;;;;;;1.19;86.74;100735.56;1813029;78;26169;-58
2020/12/16 07:32:12;;;;;;;60.55;28.73;;;;;;;1.22;86.81;100730.27;1801090;78;26051;-54
2020/12/16 07:34:55;;;;;;;58.87;28.57;;;;;;;1.27;86.79;100745.02;1796060;78;25658;-56
2020/12/16 07:37:31;;;;;;;60.55;29.20;;;;;;;1.30;86.75;100752.55;1795462;78;26968;-55
2020/12/16 07:42:41;;;;;;;56.40;28.37;;;;;;;1.44;86.64;100762.42;1806299;78;33984;-52
2020/12/16 07:45:12;;;;;;;59.53;27.67;;;;;;;1.39;86.54;100755.13;1761643;80;25853;-57
2020/12/16 07:47:43;;;;;;;56.88;28.35;;;;;;;1.45;86.67;100757.39;1724863;82;25785;-57
2020/12/16 07:50:10;;;;;;;56.73;28.23;;;;;;;1.47;86.41;100762.75;1742006;81;25249;-53
2020/12/16 07:52:37;;;;;;;66.12;29.63;;;;;;;1.49;86.45;100768.66;1736899;82;26319;-56
2020/12/16 07:55:04;;;;;;;64.45;28.77;;;;;;;1.53;86.32;100773.52;1736862;82;25592;-58
2020/12/16 07:57:34;;;;;;;58.45;28.10;;;;;;;1.51;86.20;100772.95;1737106;82;25686;-59
2020/12/16 08:00:01;;;;;;;53.85;27.50;;;;;;;1.54;86.25;100771.95;1737083;82;26090;-59
2020/12/16 08:02:28;;;;;;;61.68;28.65;;;;;;;1.56;86.18;100778.39;1736927;82;25726;-58
2020/12/16 08:04:58;;;;;;;59.23;28.20;;;;;;;1.59;86.16;100779.25;1737005;82;25690;-59
2020/12/16 08:07:26;;;;;;;55.30;27.50;;;;;;;1.61;86.01;100781.95;1737072;82;25972;-58
2020/12/16 08:10:04;;;;;;;60.75;27.77;;;;;;;1.63;86.04;100775.05;1737035;82;26131;-59
2020/12/16 08:12:42;;;;;;;59.05;28.65;;;;;;;1.67;86.06;100789.55;1737001;82;25957;-61
2020/12/16 08:15:19;;;;;;;59.27;27.70;;;;;;;1.71;85.94;100785.87;1736937;82;25733;-61
2020/12/16 08:17:51;;;;;;;65.10;30.68;;;;;;;1.75;86.00;100791.02;1737007;82;25636;-61
2020/12/16 08:20:22;;;;;;;55.80;28.98;;;;;;;1.77;85.89;100792.41;1737068;82;25658;-59
2020/12/16 08:22:53;;;;;;;56.02;28.32;;;;;;;1.80;85.84;100787.91;1737047;82;25718;-58
2020/12/16 08:25:22;;;;;;;55.58;28.07;;;;;;;1.84;85.89;100794.41;1737111;82;25777;-60
2020/12/16 08:27:53;;;;;;;54.55;26.70;;;;;;;1.88;85.76;100801.94;1737239;81;25766;-61
2020/12/16 08:30:23;;;;;;;54.50;26.27;;;;;;;1.90;85.48;100798.50;1749595;81;25848;-58
2020/12/16 08:33:06;;;;;;;;;;;;;;;1.94;85.74;100792.45;1752330;81;25614;-64
2020/12/16 08:36:11;;;;;;;59.60;26.90;;;;;;;1.98;85.70;100794.92;1739724;81;25619;-49
2020/12/16 08:38:43;;;;;;;54.65;26.82;;;;;;;2.01;85.44;100794.45;1749731;81;25762;-58
2020/12/16 08:41:13;;;;;;;49.93;25.90;;;;;;;2.04;85.50;100785.97;1744943;81;25785;-60
2020/12/16 08:43:42;;;;;;;54.00;27.17;;;;;;;2.09;85.51;100789.23;1739774;82;25639;-59
2020/12/16 08:46:15;;;;;;;52.95;26.62;;;;;;;2.15;85.44;100792.82;1735111;82;25786;-58
2020/12/16 08:48:46;;;;;;;54.25;26.37;;;;;;;2.20;85.63;100791.04;1722151;83;25652;-60
2020/12/16 08:51:19;;;;;;;57.50;26.48;;;;;;;2.27;85.61;100800.77;1736720;82;26905;-60
2020/12/16 08:53:53;;;;;;;55.85;25.43;;;;;;;2.33;85.55;100801.92;1720961;83;25619;-58
2020/12/16 08:56:28;;;;;;;54.08;25.60;;;;;;;2.38;85.32;100802.54;1721456;83;26365;-58
2020/12/16 08:59:10;;;;;;;54.77;25.97;;;;;;;2.43;84.91;100807.96;1733413;82;25799;-60
2020/12/16 09:01:41;;;;;;;53.05;26.23;;;;;;;2.46;84.92;100807.48;1721592;83;25683;-59
2020/12/16 09:04:09;;;;;;;49.42;25.50;;;;;;;2.48;84.65;100810.72;1736159;82;25789;-60
2020/12/16 09:06:38;;;;;;;52.65;24.92;;;;;;;2.49;84.78;100807.00;1721470;83;25676;-59
2020/12/16 09:09:14;;;;;;;49.75;24.77;;;;;;;2.54;84.45;100810.30;1721502;83;25242;-58
2020/12/16 09:11:49;;;;;;;50.30;24.77;;;;;;;2.56;84.64;100814.33;1721387;83;25676;-63
2020/12/16 09:14:16;;;;;;;48.80;25.27;;;;;;;2.57;84.46;100805.78;1736191;82;25933;-61
2020/12/16 09:16:44;;;;;;;49.25;23.92;;;;;;;2.61;84.53;100798.92;1721137;82;26249;-60
2020/12/16 09:19:24;;;;;;;49.53;24.57;;;;;;;2.67;84.71;100794.45;1719722;82;25662;-53
2020/12/16 09:21:52;;;;;;;44.27;22.52;;;;;;;2.72;84.62;100791.86;1727427;82;28828;-62
2020/12/16 09:24:23;;;;;;;43.17;21.50;;;;;;;2.78;84.53;100791.69;1706650;84;25652;-55
2020/12/16 09:26:55;;;;;;;42.55;22.07;;;;;;;2.84;84.52;100791.23;1732065;82;25943;-51
2020/12/16 09:29:29;;;;;;;48.25;23.65;;;;;;;2.90;84.56;100798.81;1733761;82;25813;-59
2020/12/16 09:32:20;;;;;;;42.67;21.75;;;;;;;2.95;84.35;100801.56;1732268;82;25793;-57
2020/12/16 09:34:54;;;;;;;45.40;22.62;;;;;;;3.00;84.41;100802.97;1734272;82;30494;-57
2020/12/16 09:37:33;;;;;;;42.73;22.58;;;;;;;3.05;84.09;100803.05;1713179;83;25659;-58
2020/12/16 09:40:17;;;;;;;44.30;21.65;;;;;;;3.09;83.87;100810.04;1728930;81;26321;-57
2020/12/16 09:42:59;;;;;;;43.35;21.97;;;;;;;3.11;83.57;100801.23;1726132;81;25796;-57
2020/12/16 09:45:32;;;;;;;45.90;21.97;;;;;;;3.13;83.53;100798.61;1726408;83;25727;-59
2020/12/16 09:48:01;;;;;;;42.17;21.60;;;;;;;3.15;83.63;100799.68;1726444;83;25767;-59
2020/12/16 09:50:32;;;;;;;42.03;21.82;;;;;;;3.20;83.63;100800.28;1725937;83;25654;-56
2020/12/16 09:53:10;;;;;;;39.30;20.23;;;;;;;3.24;83.67;100801.42;1725407;83;25747;-56
2020/12/16 09:55:39;;;;;;;47.88;21.23;;;;;;;3.26;83.60;100797.44;1725572;83;26693;-59
2020/12/16 09:58:09;;;;;;;44.58;21.23;;;;;;;3.28;83.30;100802.53;1731692;80;25619;-59
2020/12/16 10:00:37;;;;;;;40.28;20.72;;;;;;;3.29;83.25;100806.30;1742453;82;25798;-59
2020/12/16 10:03:07;;;;;;;38.28;19.37;;;;;;;3.31;83.41;100805.52;1688572;80;66084;-60
2020/12/16 10:05:35;;;;;;;40.83;19.73;;;;;;;3.32;83.37;100809.83;1664924;84;28292;-61
2020/12/16 10:08:05;;;;;;;36.55;18.62;;;;;;;3.34;83.12;100809.58;1678754;85;25954;-59
2020/12/16 10:10:32;;;;;;;41.70;20.30;;;;;;;3.34;83.04;100801.56;1677434;85;25762;-61
2020/12/16 10:12:59;;;;;;;38.20;19.00;;;;;;;3.34;82.99;100806.37;1677203;85;26342;-56
2020/12/16 10:15:26;;;;;;;37.80;18.60;;;;;;;3.34;83.07;100801.02;1667051;85;25930;-59
2020/12/16 10:17:55;;;;;;;39.35;20.08;;;;;;;3.36;83.05;100802.11;1668177;85;25848;-61
2020/12/16 10:20:22;;;;;;;38.08;20.08;;;;;;;3.38;83.12;100801.33;1666456;85;25824;-59
2020/12/16 10:22:50;;;;;;;42.83;20.02;;;;;;;3.41;83.28;100800.04;1666729;85;26041;-60
2020/12/16 10:25:18;;;;;;;36.48;19.40;;;;;;;3.44;83.13;100804.87;1667676;85;26024;-57
2020/12/16 10:27:47;;;;;;;39.05;19.15;;;;;;;3.45;83.01;100804.62;1666989;85;26386;-56
2020/12/16 10:30:17;;;;;;;41.58;20.12;;;;;;;3.45;83.03;100807.30;1667069;85;26460;-57
2020/12/16 10:32:45;;;;;;;39.92;19.60;;;;;;;3.48;83.00;100807.34;1666611;85;26259;-57
2020/12/16 10:35:12;;;;;;;38.40;19.47;;;;;;;3.50;83.14;100809.23;1665874;85;26061;-58
2020/12/16 10:37:42;;;;;;;39.95;19.32;;;;;;;3.52;82.76;100813.29;1663061;85;25913;-55
2020/12/16 10:40:09;;;;;;;36.20;18.15;;;;;;;3.52;82.97;100815.14;1669616;83;25425;-54
2020/12/16 10:42:36;;;;;;;38.23;20.23;;;;;;;3.52;82.98;100821.31;1685844;83;26073;-57
2020/12/16 10:45:04;;;;;;;34.25;18.62;;;;;;;3.55;82.95;100815.98;1717847;82;25814;-57
2020/12/16 10:47:31;;;;;;;36.73;19.45;;;;;;;3.54;82.69;100817.86;1721936;82;25940;-60
2020/12/16 10:50:03;;;;;;;35.68;18.60;;;;;;;3.54;82.76;100819.20;1719815;82;26087;-57
2020/12/16 10:52:31;;;;;;;37.75;19.25;;;;;;;3.55;82.77;100818.66;1734357;82;25903;-58
2020/12/16 10:54:58;;;;;;;38.50;20.10;;;;;;;3.57;82.83;100821.89;1736383;82;25759;-58
2020/12/16 10:57:24;;;;;;;36.98;19.23;;;;;;;3.60;82.98;100832.09;1736680;82;25795;-57
2020/12/16 10:59:51;;;;;;;37.98;18.98;;;;;;;3.62;82.81;100833.98;1736286;82;25786;-57
2020/12/16 11:02:18;;;;;;;37.85;19.42;;;;;;;3.63;82.85;100827.59;1696419;82;33037;-57
2020/12/16 11:04:44;;;;;;;37.75;18.98;;;;;;;3.65;82.93;100830.82;1675018;84;25731;-59
2020/12/16 11:07:11;;;;;;;35.35;19.27;;;;;;;3.66;82.76;100828.44;1674756;84;25893;-61
2020/12/16 11:09:38;;;;;;;41.10;20.00;;;;;;;3.69;82.89;100828.45;1677924;83;25766;-61
2020/12/16 11:12:05;;;;;;;34.40;18.95;;;;;;;3.71;82.82;100831.67;1678010;84;25865;-55
2020/12/16 11:14:31;;;;;;;36.20;19.52;;;;;;;3.71;82.69;100819.64;1705483;84;25883;-56
2020/12/16 11:16:58;;;;;;;41.00;19.05;;;;;;;3.72;82.89;100822.06;1705007;84;25938;-58
2020/12/16 11:19:25;;;;;;;34.50;18.77;;;;;;;3.75;82.77;100827.46;1705396;84;25900;-57
2020/12/16 11:21:53;;;;;;;39.23;19.02;;;;;;;3.77;82.76;100827.22;1704834;83;26100;-55
2020/12/16 11:24:23;;;;;;;39.03;20.17;;;;;;;3.79;82.84;100832.58;1705359;83;25761;-57
2020/12/16 11:26:52;;;;;;;37.73;20.17;;;;;;;3.81;82.79;100832.33;1705319;84;25767;-56
2020/12/16 11:29:23;;;;;;;38.30;19.92;;;;;;;3.82;82.86;100828.07;1705294;84;25807;-54
2020/12/16 11:31:54;;;;;;;40.52;19.40;;;;;;;3.84;82.85;100832.64;1705388;83;25983;-58
2020/12/16 11:34:25;;;;;;;40.28;19.92;;;;;;;3.86;83.05;100835.06;1705248;84;25831;-64
2020/12/16 11:36:57;;;;;;;38.88;20.02;;;;;;;3.88;83.06;100843.14;1704869;83;26339;-58
2020/12/16 11:39:25;;;;;;;35.95;19.82;;;;;;;3.89;83.16;100843.40;1705418;83;25846;-62